createdAt,value
2023-03-13T00:01:19.285Z,2.00
2023-03-13T00:03:45.708Z,2.03
2023-03-13T00:06:12.677Z,2.20
2023-03-13T00:08:39.423Z,1.92
2023-03-13T00:11:09.836Z,2.05
2023-03-13T00:13:36.801Z,1.90
2023-03-13T00:16:04.506Z,2.28
2023-03-13T00:18:30.972Z,2.05
2023-03-13T00:21:08.025Z,1.90
2023-03-13T00:23:36.058Z,2.10
2023-03-13T00:26:04.433Z,1.90
2023-03-13T00:28:32.744Z,1.95
2023-03-13T00:31:15.873Z,1.98
2023-03-13T00:33:43.807Z,1.95
2023-03-13T00:36:18.219Z,1.90
2023-03-13T00:38:45.395Z,1.85
2023-03-13T00:41:16.539Z,1.90
2023-03-13T00:43:43.741Z,1.80
2023-03-13T00:46:10.830Z,1.83
2023-03-13T00:48:37.316Z,1.80
2023-03-13T00:51:04.297Z,1.85
2023-03-13T00:53:31.027Z,1.42
2023-03-13T00:55:59.100Z,1.40
2023-03-13T00:58:26.826Z,1.70
2023-03-13T01:00:53.999Z,1.58
2023-03-13T01:03:21.262Z,1.55
2023-03-13T01:06:01.547Z,1.60
2023-03-13T01:08:29.022Z,1.42
2023-03-13T01:10:59.722Z,1.42
2023-03-13T01:13:26.410Z,1.55
2023-03-13T01:15:52.866Z,1.48
2023-03-13T01:18:19.404Z,1.63
2023-03-13T01:20:45.827Z,1.45
2023-03-13T01:23:12.358Z,1.42
2023-03-13T01:25:38.801Z,1.30
2023-03-13T01:28:05.207Z,1.45
2023-03-13T01:30:32.203Z,1.13
2023-03-13T01:32:58.693Z,1.52
2023-03-13T01:35:25.226Z,1.33
2023-03-13T01:37:51.672Z,1.30
2023-03-13T01:40:18.137Z,1.10
2023-03-13T01:42:50.836Z,1.10
2023-03-13T01:45:36.018Z,1.15
2023-03-13T01:48:02.449Z,1.00
2023-03-13T01:50:28.861Z,1.42
2023-03-13T01:52:55.385Z,1.20
2023-03-13T01:55:22.376Z,1.15
2023-03-13T01:57:50.865Z,1.08
2023-03-13T02:00:22.990Z,1.20
2023-03-13T02:02:51.744Z,1.20
2023-03-13T02:05:20.378Z,0.93
2023-03-13T02:07:48.690Z,1.05
2023-03-13T02:10:16.575Z,1.13
2023-03-13T02:12:43.078Z,1.30
2023-03-13T02:15:11.641Z,0.95
2023-03-13T02:17:38.417Z,1.00
2023-03-13T02:20:05.427Z,1.10
2023-03-13T02:22:44.121Z,0.90
2023-03-13T02:25:15.237Z,1.20
2023-03-13T02:27:43.458Z,1.38
2023-03-13T02:30:12.114Z,1.00
2023-03-13T02:32:38.676Z,0.88
2023-03-13T02:35:07.446Z,0.90
2023-03-13T02:37:33.887Z,0.90
2023-03-13T02:40:02.798Z,0.90
2023-03-13T02:42:29.518Z,0.90
2023-03-13T02:44:56.018Z,1.00
2023-03-13T02:47:23.894Z,0.93
2023-03-13T02:49:51.121Z,0.73
2023-03-13T02:52:27.858Z,0.88
2023-03-13T02:55:06.319Z,0.80
2023-03-13T02:57:34.055Z,0.90
2023-03-13T03:00:00.473Z,1.10
2023-03-13T03:02:26.940Z,1.00
2023-03-13T03:04:53.410Z,0.90
2023-03-13T03:07:19.813Z,0.90
2023-03-13T03:09:46.241Z,0.68
2023-03-13T03:12:12.704Z,0.88
2023-03-13T03:14:39.232Z,0.98
2023-03-13T03:17:05.661Z,0.80
2023-03-13T03:19:32.222Z,0.75
2023-03-13T03:21:58.671Z,0.65
2023-03-13T03:24:25.091Z,0.90
2023-03-13T03:26:51.529Z,0.80
2023-03-13T03:29:18.138Z,0.80
2023-03-13T03:31:44.656Z,0.70
2023-03-13T03:34:11.103Z,0.60
2023-03-13T03:36:37.522Z,0.75
2023-03-13T03:39:04.946Z,0.60
2023-03-13T03:41:31.516Z,0.70
2023-03-13T03:43:57.942Z,0.60
2023-03-13T03:46:24.893Z,0.68
2023-03-13T03:48:51.301Z,0.70
2023-03-13T03:51:17.735Z,0.80
2023-03-13T03:53:44.121Z,0.60
2023-03-13T03:56:10.555Z,0.70
2023-03-13T03:58:37.062Z,0.75
2023-03-13T04:01:03.958Z,0.90
2023-03-13T04:03:30.505Z,0.60
2023-03-13T04:05:58.419Z,0.60
2023-03-13T04:08:25.381Z,0.55
2023-03-13T04:10:52.272Z,0.60
2023-03-13T04:13:18.665Z,0.50
2023-03-13T04:15:45.397Z,0.68
2023-03-13T04:18:11.790Z,0.77
2023-03-13T04:20:38.293Z,0.70
2023-03-13T04:23:04.828Z,0.70
2023-03-13T04:25:31.250Z,0.60
2023-03-13T04:27:57.674Z,0.60
2023-03-13T04:30:24.060Z,0.80
2023-03-13T04:32:51.257Z,0.70
2023-03-13T04:35:18.054Z,0.60
2023-03-13T04:37:44.544Z,0.68
2023-03-13T04:40:12.674Z,0.93
2023-03-13T04:42:39.691Z,0.90
2023-03-13T04:45:06.386Z,0.85
2023-03-13T04:47:32.812Z,1.30
2023-03-13T04:49:59.204Z,1.13
2023-03-13T04:52:25.596Z,1.30
2023-03-13T04:54:52.185Z,1.27
2023-03-13T04:57:18.668Z,1.00
2023-03-13T04:59:45.124Z,1.20
2023-03-13T05:02:12.531Z,1.00
2023-03-13T05:04:38.996Z,1.50
2023-03-13T05:07:05.809Z,1.00
2023-03-13T05:09:32.357Z,1.40
2023-03-13T05:11:58.793Z,1.30
2023-03-13T05:14:25.215Z,1.48
2023-03-13T05:16:51.626Z,1.00
2023-03-13T05:19:18.108Z,1.38
2023-03-13T05:21:44.582Z,1.38
2023-03-13T05:24:11.007Z,1.15
2023-03-13T05:26:37.418Z,1.25
2023-03-13T05:29:04.063Z,1.45
2023-03-13T05:31:30.791Z,1.20
2023-03-13T05:34:00.314Z,1.52
2023-03-13T05:36:26.727Z,1.38
2023-03-13T05:38:53.200Z,1.48
2023-03-13T05:41:19.687Z,1.70
2023-03-13T05:43:46.071Z,1.63
2023-03-13T05:46:12.508Z,1.88
2023-03-13T05:48:38.966Z,1.73
2023-03-13T05:51:05.450Z,1.67
2023-03-13T05:53:31.895Z,1.45
2023-03-13T05:55:58.341Z,1.40
2023-03-13T05:58:24.785Z,1.95
2023-03-13T06:00:51.205Z,1.90
2023-03-13T06:03:17.736Z,1.70
2023-03-13T06:05:44.173Z,1.75
2023-03-13T06:08:10.673Z,1.98
2023-03-13T06:10:37.084Z,2.20
2023-03-13T06:13:18.658Z,2.03
2023-03-13T06:18:12.366Z,1.90
2023-03-13T06:20:39.425Z,2.40
2023-03-13T06:23:06.680Z,2.22
2023-03-13T06:25:34.574Z,1.98
2023-03-13T06:28:00.984Z,2.08
2023-03-13T06:30:27.411Z,2.40
2023-03-13T06:32:53.973Z,2.08
2023-03-13T06:35:20.505Z,2.08
2023-03-13T06:37:47.201Z,2.30
2023-03-13T06:40:13.733Z,2.10
2023-03-13T06:42:40.240Z,2.60
2023-03-13T06:45:07.043Z,2.20
2023-03-13T06:47:33.591Z,2.22
2023-03-13T06:49:59.994Z,1.77
2023-03-13T06:52:37.475Z,2.38
2023-03-13T06:55:08.508Z,2.00
2023-03-13T06:57:35.013Z,1.80
2023-03-13T07:00:01.446Z,2.05
2023-03-13T07:02:27.860Z,2.33
2023-03-13T07:04:54.259Z,2.25
2023-03-13T07:07:31.233Z,2.03
2023-03-13T07:09:58.592Z,2.10
2023-03-13T07:12:25.081Z,2.10
2023-03-13T07:14:51.502Z,2.05
2023-03-13T07:17:17.972Z,2.22
2023-03-13T07:19:44.445Z,2.03
2023-03-13T07:22:11.044Z,2.40
2023-03-13T07:24:37.482Z,2.00
2023-03-13T07:27:07.414Z,1.95
2023-03-13T07:29:34.428Z,2.17
2023-03-13T07:32:00.943Z,1.75
2023-03-13T07:34:27.474Z,1.88
2023-03-13T07:36:53.895Z,1.90
2023-03-13T07:39:20.311Z,1.83
2023-03-13T07:41:46.781Z,2.10
2023-03-13T07:44:13.214Z,2.15
2023-03-13T07:46:39.730Z,2.40
2023-03-13T07:49:06.847Z,2.20
2023-03-13T07:51:42.978Z,2.13
2023-03-13T07:54:10.619Z,1.80
2023-03-13T07:56:37.050Z,1.98
2023-03-13T07:59:03.570Z,1.98
2023-03-13T08:01:31.112Z,2.30
2023-03-13T08:03:58.911Z,1.92
2023-03-13T08:06:26.318Z,2.67
2023-03-13T08:08:53.516Z,2.58
2023-03-13T08:11:21.056Z,2.17
2023-03-13T08:13:47.848Z,2.30
2023-03-13T08:16:15.389Z,2.10
2023-03-13T08:18:42.841Z,2.10
2023-03-13T08:21:20.933Z,2.40
2023-03-13T08:23:47.708Z,1.90
2023-03-13T08:26:15.909Z,1.65
2023-03-13T08:28:43.473Z,2.30
2023-03-13T08:31:11.228Z,2.00
2023-03-13T08:33:38.500Z,2.00
2023-03-13T08:36:08.652Z,1.80
2023-03-13T08:38:35.323Z,1.83
2023-03-13T08:41:01.697Z,1.98
2023-03-13T08:43:28.164Z,1.80
2023-03-13T08:45:55.354Z,1.85
2023-03-13T08:48:22.286Z,2.00
2023-03-13T08:50:58.719Z,1.88
2023-03-13T08:53:26.256Z,1.85
2023-03-13T08:55:53.359Z,1.80
2023-03-13T08:58:19.743Z,1.65
2023-03-13T09:00:46.142Z,1.58
2023-03-13T09:03:12.937Z,1.73
2023-03-13T09:05:54.886Z,1.80
2023-03-13T09:08:22.418Z,1.88
2023-03-13T09:10:48.925Z,1.50
2023-03-13T09:13:15.341Z,1.83
2023-03-13T09:15:41.806Z,1.80
2023-03-13T09:18:08.377Z,1.60
2023-03-13T09:20:34.790Z,1.60
2023-03-13T09:23:01.348Z,1.50
2023-03-13T09:25:27.777Z,1.73
2023-03-13T09:27:54.149Z,1.67
2023-03-13T09:30:20.654Z,1.70
2023-03-13T09:32:47.142Z,1.88
2023-03-13T09:35:13.603Z,2.10
2023-03-13T09:37:40.011Z,1.48
2023-03-13T09:40:08.518Z,1.63
2023-03-13T09:42:55.166Z,1.98
2023-03-13T09:45:31.361Z,1.67
2023-03-13T09:48:01.722Z,1.40
2023-03-13T09:50:32.190Z,1.58
2023-03-13T09:53:04.262Z,1.65
2023-03-13T09:55:31.430Z,1.55
2023-03-13T09:58:19.492Z,1.50
2023-03-13T10:00:51.926Z,1.30
2023-03-13T10:03:22.363Z,1.65
2023-03-13T10:06:00.248Z,1.35
2023-03-13T10:08:35.622Z,1.38
2023-03-13T10:11:08.284Z,1.30
2023-03-13T10:13:49.849Z,1.60
2023-03-13T10:16:25.563Z,1.80
2023-03-13T10:19:09.449Z,1.35
2023-03-13T10:21:36.029Z,1.80
2023-03-13T10:24:05.701Z,1.38
2023-03-13T10:26:34.262Z,1.50
2023-03-13T10:29:20.060Z,1.70
2023-03-13T10:31:50.399Z,2.03
2023-03-13T10:34:16.881Z,1.63
2023-03-13T10:36:44.826Z,1.42
2023-03-13T10:39:18.864Z,1.50
2023-03-13T10:41:45.593Z,1.42
2023-03-13T10:44:16.239Z,1.58
2023-03-13T10:46:43.866Z,1.55
2023-03-13T10:49:14.960Z,1.50
2023-03-13T10:51:44.692Z,1.35
2023-03-13T10:54:25.079Z,1.35
2023-03-13T10:56:53.164Z,1.50
2023-03-13T10:59:22.358Z,1.75
2023-03-13T11:01:48.971Z,1.35
2023-03-13T11:04:27.490Z,1.65
2023-03-13T11:06:58.433Z,1.60
2023-03-13T11:09:27.151Z,1.33
2023-03-13T11:12:02.123Z,1.27
2023-03-13T11:14:28.524Z,1.33
2023-03-13T11:17:04.618Z,1.35
2023-03-13T11:19:42.615Z,1.38
2023-03-13T11:22:12.178Z,1.20
2023-03-13T11:24:47.051Z,1.40
2023-03-13T11:27:31.954Z,1.70
2023-03-13T11:30:05.442Z,1.27
2023-03-13T11:32:40.813Z,1.33
2023-03-13T11:35:15.162Z,1.23
2023-03-13T11:37:41.809Z,1.40
2023-03-13T11:40:22.608Z,1.20
2023-03-13T11:42:55.439Z,1.60
2023-03-13T11:45:37.252Z,1.20
2023-03-13T11:48:06.452Z,1.25
2023-03-13T11:50:51.543Z,1.13
2023-03-13T11:53:29.877Z,1.65
2023-03-13T11:55:59.210Z,1.42
2023-03-13T11:58:44.419Z,1.20
2023-03-13T12:01:21.818Z,1.33
2023-03-13T12:03:54.551Z,1.40
2023-03-13T12:06:28.578Z,1.40
2023-03-13T12:09:01.707Z,1.25
2023-03-13T12:11:31.359Z,1.67
2023-03-13T12:14:01.590Z,1.42
2023-03-13T12:16:40.160Z,1.50
2023-03-13T12:19:09.869Z,1.30
2023-03-13T12:21:48.926Z,1.30
2023-03-13T12:24:22.969Z,1.45
2023-03-13T12:27:04.502Z,1.40
2023-03-13T12:29:49.333Z,1.35
2023-03-13T12:32:27.601Z,1.20
2023-03-13T12:34:53.960Z,1.20
2023-03-13T12:37:20.376Z,0.93
2023-03-13T12:39:52.231Z,1.83
2023-03-13T12:42:23.697Z,1.40
2023-03-13T12:44:50.409Z,1.53
2023-03-13T12:47:17.221Z,1.90
2023-03-13T12:50:02.648Z,2.03
2023-03-13T12:52:29.043Z,2.15
2023-03-13T12:55:13.893Z,2.20
2023-03-13T12:57:58.926Z,1.73
2023-03-13T13:00:26.997Z,1.67
2023-03-13T13:03:12.407Z,2.22
2023-03-13T13:05:38.936Z,1.60
2023-03-13T13:08:05.561Z,1.67
2023-03-13T13:10:32.013Z,1.73
2023-03-13T13:13:13.787Z,1.80
2023-03-13T13:16:00.331Z,2.05
2023-03-13T13:18:28.185Z,2.08
2023-03-13T13:21:07.045Z,1.90
2023-03-13T13:23:46.946Z,1.80
2023-03-13T13:26:29.830Z,1.67
2023-03-13T13:29:22.432Z,1.50
2023-03-13T13:31:51.676Z,1.70
2023-03-13T13:34:40.219Z,1.90
2023-03-13T13:37:12.659Z,1.35
2023-03-13T13:39:48.045Z,1.75
2023-03-13T13:42:29.968Z,2.08
2023-03-13T13:45:02.434Z,1.70
2023-03-13T13:47:32.418Z,1.75
2023-03-13T13:50:03.064Z,1.88
2023-03-13T13:52:35.541Z,1.88
2023-03-13T13:55:03.250Z,1.75
2023-03-13T13:57:35.861Z,1.77
2023-03-13T14:00:06.809Z,1.58
2023-03-13T14:02:37.090Z,1.85
2023-03-13T14:05:08.635Z,1.70
2023-03-13T14:07:46.116Z,1.92
2023-03-13T14:10:17.819Z,1.63
2023-03-13T14:12:51.387Z,1.65
2023-03-13T14:15:20.076Z,1.45
2023-03-13T14:17:48.686Z,1.27
2023-03-13T14:20:20.092Z,1.70
2023-03-13T14:22:47.579Z,1.40
2023-03-13T14:25:14.054Z,1.80
2023-03-13T14:27:44.496Z,1.48
2023-03-13T14:30:11.678Z,1.48
2023-03-13T14:32:38.750Z,1.60
2023-03-13T14:35:06.157Z,1.70
2023-03-13T14:37:37.477Z,1.55
2023-03-13T14:40:19.275Z,1.45
2023-03-13T14:42:47.313Z,1.55
2023-03-13T14:45:20.167Z,1.60
2023-03-13T14:47:46.679Z,1.67
2023-03-13T14:50:14.859Z,1.45
2023-03-13T14:52:51.753Z,1.50
2023-03-13T14:55:21.806Z,1.38
2023-03-13T14:57:55.936Z,1.67
2023-03-13T15:00:33.820Z,1.60
2023-03-13T15:03:21.981Z,1.33
2023-03-13T15:06:11.511Z,1.33
2023-03-13T15:08:42.413Z,1.23
2023-03-13T15:11:19.214Z,1.45
2023-03-13T15:13:45.856Z,1.50
2023-03-13T15:16:16.924Z,1.40
2023-03-13T15:18:43.481Z,1.25
2023-03-13T15:21:12.952Z,1.73
2023-03-13T15:23:39.933Z,1.58
2023-03-13T15:26:06.544Z,1.50
2023-03-13T15:28:33.019Z,1.60
2023-03-13T15:30:59.839Z,1.60
2023-03-13T15:33:27.818Z,1.80
2023-03-13T15:35:54.740Z,1.58
2023-03-13T15:38:22.729Z,1.90
2023-03-13T15:40:49.261Z,1.60
2023-03-13T15:43:16.062Z,1.70
2023-03-13T15:45:43.934Z,1.70
2023-03-13T15:48:31.538Z,1.65
2023-03-13T15:50:59.890Z,2.20
2023-03-13T15:53:28.067Z,1.63
2023-03-13T15:55:55.434Z,1.60
2023-03-13T15:58:22.151Z,1.70
2023-03-13T16:00:49.281Z,1.80
2023-03-13T16:03:26.446Z,2.10
2023-03-13T16:05:53.528Z,1.60
2023-03-13T16:08:34.840Z,1.63
2023-03-13T16:11:01.953Z,2.13
2023-03-13T16:13:28.330Z,1.67
2023-03-13T16:15:54.782Z,1.95
2023-03-13T16:18:23.168Z,1.85
2023-03-13T16:20:52.259Z,1.95
2023-03-13T16:23:18.724Z,1.90
2023-03-13T16:25:46.075Z,1.90
2023-03-13T16:28:13.239Z,1.88
2023-03-13T16:30:43.788Z,1.80
2023-03-13T16:33:10.753Z,2.28
2023-03-13T16:35:37.356Z,2.20
2023-03-13T16:38:03.914Z,1.65
2023-03-13T16:40:32.275Z,1.80
2023-03-13T16:42:59.063Z,2.05
2023-03-13T16:45:25.466Z,2.00
2023-03-13T16:47:52.010Z,2.08
2023-03-13T16:50:37.502Z,1.92
2023-03-13T16:53:04.043Z,2.08
2023-03-13T16:55:36.173Z,1.90
2023-03-13T17:00:30.163Z,1.63
2023-03-13T17:02:58.081Z,1.90
2023-03-13T17:05:25.017Z,1.98
2023-03-13T17:07:51.869Z,2.22
2023-03-13T17:10:20.212Z,1.70
2023-03-13T17:12:47.208Z,1.77
2023-03-13T17:15:14.060Z,1.70
2023-03-13T17:17:40.677Z,2.20
2023-03-13T17:20:09.774Z,2.00
2023-03-13T17:22:36.408Z,2.15
2023-03-13T17:25:02.826Z,2.28
2023-03-13T17:27:29.522Z,1.88
2023-03-13T17:29:55.968Z,2.50
2023-03-13T17:32:25.169Z,1.90
2023-03-13T17:34:51.748Z,2.40
2023-03-13T17:37:19.573Z,2.25
2023-03-13T17:39:46.539Z,1.98
2023-03-13T17:42:12.986Z,2.35
2023-03-13T17:44:41.107Z,2.45
2023-03-13T17:47:14.812Z,2.25
2023-03-13T17:49:41.495Z,2.05
2023-03-13T17:52:11.015Z,2.33
2023-03-13T17:54:37.372Z,2.10
2023-03-13T17:57:09.398Z,2.20
2023-03-13T17:59:35.790Z,2.42
2023-03-13T18:02:02.264Z,2.20
2023-03-13T18:04:28.749Z,2.45
2023-03-13T18:06:55.179Z,2.20
2023-03-13T18:09:21.959Z,2.90
2023-03-13T18:11:49.227Z,2.92
2023-03-13T18:14:15.638Z,2.72
2023-03-13T18:16:47.607Z,2.47
2023-03-13T18:19:20.538Z,2.60
2023-03-13T18:21:49.385Z,2.55
2023-03-13T18:24:17.788Z,2.50
2023-03-13T18:26:44.922Z,2.63
2023-03-13T18:29:14.124Z,2.75
2023-03-13T18:31:43.677Z,3.00
2023-03-13T18:34:11.053Z,2.85
2023-03-13T18:36:38.174Z,2.15
2023-03-13T18:39:06.148Z,2.63
2023-03-13T18:41:33.366Z,2.42
2023-03-13T18:44:01.670Z,2.33
2023-03-13T18:46:31.438Z,2.17
2023-03-13T18:48:58.413Z,2.17
2023-03-13T18:51:25.414Z,2.50
2023-03-13T18:53:52.977Z,2.53
2023-03-13T18:56:20.575Z,2.42
2023-03-13T18:58:50.228Z,2.30
2023-03-13T19:01:18.871Z,2.30
2023-03-13T19:03:45.771Z,2.47
2023-03-13T19:06:17.164Z,2.30
2023-03-13T19:08:43.767Z,2.15
2023-03-13T19:11:16.865Z,2.13
2023-03-13T19:13:43.313Z,2.28
2023-03-13T19:16:13.055Z,2.47
2023-03-13T19:18:39.536Z,3.00
2023-03-13T19:21:14.173Z,2.50
2023-03-13T19:23:40.613Z,2.40
2023-03-13T19:26:11.184Z,2.50
2023-03-13T19:28:37.529Z,2.28
2023-03-13T19:31:04.006Z,2.50
2023-03-13T19:33:30.491Z,2.78
2023-03-13T19:35:56.944Z,2.35
2023-03-13T19:38:23.392Z,2.53
2023-03-13T19:40:50.327Z,2.25
2023-03-13T19:43:16.788Z,2.67
2023-03-13T19:45:43.220Z,2.90
2023-03-13T19:48:09.902Z,2.72
2023-03-13T19:50:36.329Z,2.90
2023-03-13T19:53:02.693Z,2.90
2023-03-13T19:55:29.050Z,2.97
2023-03-13T19:57:55.515Z,3.05
2023-03-13T20:00:23.615Z,3.17
2023-03-13T20:02:52.482Z,3.03
2023-03-13T20:05:19.019Z,3.17
2023-03-13T20:07:46.708Z,2.72
2023-03-13T20:10:13.113Z,3.13
2023-03-13T20:12:39.593Z,3.00
2023-03-13T20:15:06.669Z,3.08
2023-03-13T20:17:33.036Z,2.95
2023-03-13T20:19:59.549Z,3.10
2023-03-13T20:22:26.176Z,3.10
2023-03-13T20:24:55.026Z,2.90
2023-03-13T20:27:21.577Z,2.67
2023-03-13T20:29:48.085Z,2.58
2023-03-13T20:32:14.580Z,2.60
2023-03-13T20:34:41.170Z,2.95
2023-03-13T20:37:07.601Z,2.67
2023-03-13T20:39:35.002Z,3.20
2023-03-13T20:42:03.107Z,2.70
2023-03-13T20:44:29.836Z,2.75
2023-03-13T20:46:56.376Z,2.50
2023-03-13T20:49:22.843Z,2.65
2023-03-13T20:51:49.756Z,2.60
2023-03-13T20:54:16.316Z,2.55
2023-03-13T20:56:42.748Z,2.60
2023-03-13T20:59:09.169Z,2.33
2023-03-13T21:01:35.713Z,2.58
2023-03-13T21:04:02.120Z,2.75
2023-03-13T21:06:30.258Z,2.80
2023-03-13T21:08:56.656Z,2.90
2023-03-13T21:11:23.308Z,2.80
2023-03-13T21:13:50.178Z,2.90
2023-03-13T21:16:18.512Z,2.70
2023-03-13T21:18:45.085Z,2.70
2023-03-13T21:21:17.271Z,2.70
2023-03-13T21:26:10.555Z,2.65
2023-03-13T21:28:37.695Z,2.80
2023-03-13T21:31:08.389Z,2.90
2023-03-13T21:33:34.840Z,2.72
2023-03-13T21:36:01.363Z,3.10
2023-03-13T21:38:27.781Z,3.03
2023-03-13T21:40:54.188Z,2.63
2023-03-13T21:43:20.662Z,3.17
2023-03-13T21:45:47.071Z,2.58
2023-03-13T21:48:13.494Z,2.53
2023-03-13T21:50:39.916Z,2.75
2023-03-13T21:53:06.331Z,2.80
2023-03-13T21:55:35.307Z,2.55
2023-03-13T21:58:01.741Z,2.33
2023-03-13T22:00:28.205Z,2.33
2023-03-13T22:02:54.629Z,2.50
2023-03-13T22:05:21.064Z,2.95
2023-03-13T22:07:47.439Z,2.50
2023-03-13T22:10:13.887Z,2.38
2023-03-13T22:12:40.349Z,2.47
2023-03-13T22:15:07.083Z,2.80
2023-03-13T22:17:33.512Z,2.30
2023-03-13T22:19:59.950Z,2.13
2023-03-13T22:22:26.325Z,2.10
2023-03-13T22:24:54.221Z,2.42
2023-03-13T22:27:23.347Z,1.88
2023-03-13T22:29:50.179Z,2.10
2023-03-13T22:32:16.903Z,2.80
2023-03-13T22:34:45.100Z,2.17
2023-03-13T22:37:12.276Z,2.42
2023-03-13T22:39:39.532Z,2.08
2023-03-13T22:42:06.346Z,2.30
2023-03-13T22:44:32.921Z,1.70
2023-03-13T22:46:59.347Z,1.88
2023-03-13T22:49:25.811Z,2.00
2023-03-13T22:51:52.172Z,2.05
2023-03-13T22:54:18.604Z,2.03
2023-03-13T22:56:45.006Z,2.03
2023-03-13T22:59:11.422Z,1.70
2023-03-13T23:01:37.816Z,1.80
2023-03-13T23:04:04.248Z,1.90
2023-03-13T23:06:30.702Z,1.73
2023-03-13T23:08:57.099Z,2.03
2023-03-13T23:11:23.507Z,1.95
2023-03-13T23:13:49.963Z,2.30
2023-03-13T23:16:16.403Z,1.80
2023-03-13T23:18:43.172Z,2.05
2023-03-13T23:21:11.194Z,1.80
2023-03-13T23:23:37.723Z,2.08
2023-03-13T23:26:05.385Z,2.00
2023-03-13T23:28:31.898Z,2.08
2023-03-13T23:30:58.587Z,2.10
2023-03-13T23:33:25.086Z,1.85
2023-03-13T23:35:51.563Z,2.17
2023-03-13T23:38:23.176Z,1.70
2023-03-13T23:40:49.734Z,1.70
2023-03-13T23:43:16.109Z,2.08
2023-03-13T23:45:42.653Z,2.10
2023-03-13T23:48:09.075Z,2.17
2023-03-13T23:50:36.029Z,2.08
2023-03-13T23:53:02.466Z,2.00
2023-03-13T23:55:28.896Z,2.28
2023-03-13T23:57:55.322Z,2.10
